Ana Sayfa
METAR-TAF:

METAR-TAF

Havaalanları :

Paros, Yunanistan

Enlem: 37-01-15N, Boylam: 025-06-46E, yükseklik: 38 m

Güncel hava durumu gözlemi

Rapor saat 19:50 UTC de 26 dakika önce yapıldı.
Rüzgar güney/güneydoğudan 5 kt
Sıcaklık 18°C
Nem 68%
Basınç 1013 hPa

METAR: LGPA 311950Z AUTO 16005KT //// // ////// 18/12 Q1013 RE//

Saat: 23:16 (20:16 UTC)


TAF: eksik

4.000'den fazla havaalanı için hava durumu gözlemleri ve tahminleri (METAR ve TAF raporları).

Kullanılabilir istasyonlar harita üzerinde sarı ve kırmızı noktalarla gösterilir.

İstasyonun adını görmek için fareyi noktanın üzerinde gezdirin.

Sonrasında hava gözlem ve tahminlerini görmek için tıklayın.

Haritayı değiştirmek için: yaklaştırmak için siyah artı işaretli yeşil düğmeye ve uzaklaştırmak için de eksi işaretli düğmeye hızla tıklayın; bitişik haritalar için yeşil okları kullanın.


METAR-TAF: